sensor_id;sensor_type;location;lat;lon;timestamp;pressure;altitude;pressure_sealevel;temperature;humidity
64853;BME280;56050;55.558;-4.644;2023-06-26T00:01:28;101280.13;;;16.81;61.49
64853;BME280;56050;55.558;-4.644;2023-06-26T00:03:57;101275.81;;;16.84;61.63
64853;BME280;56050;55.558;-4.644;2023-06-26T00:06:24;101270.78;;;16.82;61.61
64853;BME280;56050;55.558;-4.644;2023-06-26T00:08:54;101281.66;;;16.82;61.69
64853;BME280;56050;55.558;-4.644;2023-06-26T00:11:21;101280.13;;;16.81;61.87
64853;BME280;56050;55.558;-4.644;2023-06-26T00:13:46;101279.75;;;16.79;62.08
64853;BME280;56050;55.558;-4.644;2023-06-26T00:16:12;101284.84;;;16.77;62.04
64853;BME280;56050;55.558;-4.644;2023-06-26T00:18:37;101291.91;;;16.75;62.03
64853;BME280;56050;55.558;-4.644;2023-06-26T00:21:02;101283.00;;;16.71;62.47
64853;BME280;56050;55.558;-4.644;2023-06-26T00:23:28;101287.34;;;16.68;62.13
64853;BME280;56050;55.558;-4.644;2023-06-26T00:25:56;101285.81;;;16.67;62.19
64853;BME280;56050;55.558;-4.644;2023-06-26T00:28:21;101286.22;;;16.66;62.31
64853;BME280;56050;55.558;-4.644;2023-06-26T00:30:46;101285.88;;;16.64;62.77
64853;BME280;56050;55.558;-4.644;2023-06-26T00:33:12;101297.53;;;16.64;62.53
64853;BME280;56050;55.558;-4.644;2023-06-26T00:35:37;101293.25;;;16.63;62.74
64853;BME280;56050;55.558;-4.644;2023-06-26T00:38:03;101295.63;;;16.61;62.42
64853;BME280;56050;55.558;-4.644;2023-06-26T00:40:28;101293.31;;;16.60;62.80
64853;BME280;56050;55.558;-4.644;2023-06-26T00:42:54;101299.50;;;16.60;62.82
64853;BME280;56050;55.558;-4.644;2023-06-26T00:45:19;101293.72;;;16.58;62.74
64853;BME280;56050;55.558;-4.644;2023-06-26T00:47:45;101298.81;;;16.56;62.99
64853;BME280;56050;55.558;-4.644;2023-06-26T00:50:10;101298.81;;;16.56;62.91
64853;BME280;56050;55.558;-4.644;2023-06-26T00:52:37;101300.41;;;16.54;63.16
64853;BME280;56050;55.558;-4.644;2023-06-26T00:55:03;101306.63;;;16.54;63.23
64853;BME280;56050;55.558;-4.644;2023-06-26T00:57:30;101303.16;;;16.50;63.37
64853;BME280;56050;55.558;-4.644;2023-06-26T00:59:56;101306.66;;;16.51;63.45
64853;BME280;56050;55.558;-4.644;2023-06-26T01:02:22;101303.94;;;16.51;63.37
64853;BME280;56050;55.558;-4.644;2023-06-26T01:04:49;101303.16;;;16.50;63.41
64853;BME280;56050;55.558;-4.644;2023-06-26T01:07:15;101309.38;;;16.51;63.68
64853;BME280;56050;55.558;-4.644;2023-06-26T01:09:47;101308.59;;;16.50;63.43
64853;BME280;56050;55.558;-4.644;2023-06-26T01:12:13;101306.66;;;16.51;63.59
64853;BME280;56050;55.558;-4.644;2023-06-26T01:14:39;101306.28;;;16.49;63.51
64853;BME280;56050;55.558;-4.644;2023-06-26T01:17:05;101313.69;;;16.48;63.91
64853;BME280;56050;55.558;-4.644;2023-06-26T01:19:33;101309.00;;;16.49;63.93
64853;BME280;56050;55.558;-4.644;2023-06-26T01:27:33;101316.03;;;16.46;64.00
64853;BME280;56050;55.558;-4.644;2023-06-26T01:30:02;101318.00;;;16.45;64.06
64853;BME280;56050;55.558;-4.644;2023-06-26T01:32:30;101314.50;;;16.45;64.34
64853;BME280;56050;55.558;-4.644;2023-06-26T01:34:57;101305.22;;;16.42;64.31
64853;BME280;56050;55.558;-4.644;2023-06-26T01:37:22;101319.97;;;16.41;64.63
64853;BME280;56050;55.558;-4.644;2023-06-26T01:39:48;101321.56;;;16.39;64.51
64853;BME280;56050;55.558;-4.644;2023-06-26T01:42:13;101323.53;;;16.38;64.61
64853;BME280;56050;55.558;-4.644;2023-06-26T01:44:44;101319.28;;;16.37;64.66
64853;BME280;56050;55.558;-4.644;2023-06-26T01:47:12;101323.53;;;16.38;64.53
64853;BME280;56050;55.558;-4.644;2023-06-26T01:52:30;101323.88;;;16.40;64.54
64853;BME280;56050;55.558;-4.644;2023-06-26T01:57:35;101316.09;;;16.42;64.79
64853;BME280;56050;55.558;-4.644;2023-06-26T02:00:03;101321.16;;;16.40;64.86
64853;BME280;56050;55.558;-4.644;2023-06-26T02:02:29;101322.34;;;16.39;65.08
64853;BME280;56050;55.558;-4.644;2023-06-26T02:04:55;101314.97;;;16.40;65.02
64853;BME280;56050;55.558;-4.644;2023-06-26T02:07:20;101321.56;;;16.39;65.19
64853;BME280;56050;55.558;-4.644;2023-06-26T02:09:45;101321.94;;;16.41;64.96
64853;BME280;56050;55.558;-4.644;2023-06-26T02:12:11;101324.25;;;16.42;64.86
64853;BME280;56050;55.558;-4.644;2023-06-26T02:14:36;101319.97;;;16.41;64.94
64853;BME280;56050;55.558;-4.644;2023-06-26T02:17:02;101323.13;;;16.40;65.11
64853;BME280;56050;55.558;-4.644;2023-06-26T02:19:27;101320.81;;;16.38;65.15
64853;BME280;56050;55.558;-4.644;2023-06-26T02:21:53;101321.22;;;16.37;65.26
64853;BME280;56050;55.558;-4.644;2023-06-26T02:24:19;101320.44;;;16.36;65.16
64853;BME280;56050;55.558;-4.644;2023-06-26T02:26:44;101322.75;;;16.38;65.37
64853;BME280;56050;55.558;-4.644;2023-06-26T02:29:11;101318.84;;;16.39;65.36
64853;BME280;56050;55.558;-4.644;2023-06-26T02:31:36;101322.34;;;16.39;65.33
64853;BME280;56050;55.558;-4.644;2023-06-26T02:34:02;101327.00;;;16.39;65.40
64853;BME280;56050;55.558;-4.644;2023-06-26T02:36:27;101322.75;;;16.38;65.78
64853;BME280;56050;55.558;-4.644;2023-06-26T02:38:53;101324.72;;;16.37;65.66
64853;BME280;56050;55.558;-4.644;2023-06-26T02:41:18;101323.53;;;16.38;65.69
64853;BME280;56050;55.558;-4.644;2023-06-26T02:43:44;101318.09;;;16.38;65.61
64853;BME280;56050;55.558;-4.644;2023-06-26T02:46:09;101325.84;;;16.40;65.32
64853;BME280;56050;55.558;-4.644;2023-06-26T02:48:34;101319.97;;;16.41;65.38
64853;BME280;56050;55.558;-4.644;2023-06-26T02:51:00;101325.41;;;16.41;65.50
64853;BME280;56050;55.558;-4.644;2023-06-26T02:53:25;101315.72;;;16.40;65.70
64853;BME280;56050;55.558;-4.644;2023-06-26T02:55:51;101314.97;;;16.40;65.87
64853;BME280;56050;55.558;-4.644;2023-06-26T02:58:16;101314.59;;;16.38;65.65
64853;BME280;56050;55.558;-4.644;2023-06-26T03:00:41;101318.84;;;16.39;65.53
64853;BME280;56050;55.558;-4.644;2023-06-26T03:03:09;101319.28;;;16.37;65.83
64853;BME280;56050;55.558;-4.644;2023-06-26T03:05:34;101316.56;;;16.37;65.48
64853;BME280;56050;55.558;-4.644;2023-06-26T03:07:59;101321.22;;;16.37;65.58
64853;BME280;56050;55.558;-4.644;2023-06-26T03:10:25;101323.16;;;16.36;65.86
64853;BME280;56050;55.558;-4.644;2023-06-26T03:12:50;101322.81;;;16.34;65.65
64853;BME280;56050;55.558;-4.644;2023-06-26T03:15:16;101315.06;;;16.33;65.68
64853;BME280;56050;55.558;-4.644;2023-06-26T03:17:41;101318.19;;;16.31;65.61
64853;BME280;56050;55.558;-4.644;2023-06-26T03:20:07;101316.28;;;16.28;65.72
64853;BME280;56050;55.558;-4.644;2023-06-26T03:22:33;101322.13;;;16.27;65.91
64853;BME280;56050;55.558;-4.644;2023-06-26T03:24:59;101328.75;;;16.26;65.91
64853;BME280;56050;55.558;-4.644;2023-06-26T03:27:24;101337.69;;;16.26;66.01
64853;BME280;56050;55.558;-4.644;2023-06-26T03:29:52;101338.88;;;16.25;65.91
64853;BME280;56050;55.558;-4.644;2023-06-26T03:32:17;101341.94;;;16.27;65.94
64853;BME280;56050;55.558;-4.644;2023-06-26T03:34:43;101346.19;;;16.28;66.06
64853;BME280;56050;55.558;-4.644;2023-06-26T03:37:08;101341.47;;;16.32;65.71
64853;BME280;56050;55.558;-4.644;2023-06-26T03:39:34;101337.94;;;16.35;65.82
64853;BME280;56050;55.558;-4.644;2023-06-26T03:41:59;101334.00;;;16.40;65.60
64853;BME280;56050;55.558;-4.644;2023-06-26T03:44:27;101334.72;;;16.44;65.81
64853;BME280;56050;55.558;-4.644;2023-06-26T03:46:52;101339.69;;;16.49;65.84
64853;BME280;56050;55.558;-4.644;2023-06-26T03:49:18;101336.91;;;16.53;65.47
64853;BME280;56050;55.558;-4.644;2023-06-26T03:51:44;101347.00;;;16.56;65.84
64853;BME280;56050;55.558;-4.644;2023-06-26T03:54:09;101334.13;;;16.60;65.64
64853;BME280;56050;55.558;-4.644;2023-06-26T03:56:35;101345.28;;;16.65;65.75
64853;BME280;56050;55.558;-4.644;2023-06-26T03:59:00;101339.03;;;16.68;65.55
64853;BME280;56050;55.558;-4.644;2023-06-26T04:01:26;101344.84;;;16.70;65.63
64853;BME280;56050;55.558;-4.644;2023-06-26T04:03:51;101347.09;;;16.75;65.68
64853;BME280;56050;55.558;-4.644;2023-06-26T04:06:17;101342.00;;;16.77;65.21
64853;BME280;56050;55.558;-4.644;2023-06-26T04:08:42;101342.00;;;16.77;65.63
64853;BME280;56050;55.558;-4.644;2023-06-26T04:11:08;101344.72;;;16.77;65.34
64853;BME280;56050;55.558;-4.644;2023-06-26T04:13:33;101347.78;;;16.79;65.30
64853;BME280;56050;55.558;-4.644;2023-06-26T04:15:59;101348.56;;;16.80;65.50
64853;BME280;56050;55.558;-4.644;2023-06-26T04:18:24;101351.28;;;16.80;65.61
64853;BME280;56050;55.558;-4.644;2023-06-26T04:23:34;101348.69;;;16.73;65.40
64853;BME280;56050;55.558;-4.644;2023-06-26T04:26:00;101348.31;;;16.71;65.69
64853;BME280;56050;55.558;-4.644;2023-06-26T04:28:25;101346.03;;;16.69;65.68
64853;BME280;56050;55.558;-4.644;2023-06-26T04:30:51;101350.72;;;16.65;65.60
64853;BME280;56050;55.558;-4.644;2023-06-26T04:33:16;101355.44;;;16.65;65.63
64853;BME280;56050;55.558;-4.644;2023-06-26T04:35:42;101360.91;;;16.61;65.95
64853;BME280;56050;55.558;-4.644;2023-06-26T04:38:10;101369.50;;;16.60;66.00
64853;BME280;56050;55.558;-4.644;2023-06-26T04:40:35;101353.22;;;16.56;66.17
64853;BME280;56050;55.558;-4.644;2023-06-26T04:43:01;101361.78;;;16.55;66.03
64853;BME280;56050;55.558;-4.644;2023-06-26T04:45:26;101361.03;;;16.54;65.96
64853;BME280;56050;55.558;-4.644;2023-06-26T04:47:51;101362.19;;;16.53;65.94
64853;BME280;56050;55.558;-4.644;2023-06-26T04:50:17;101360.28;;;16.50;66.12
64853;BME280;56050;55.558;-4.644;2023-06-26T04:52:44;101368.84;;;16.49;66.00
64853;BME280;56050;55.558;-4.644;2023-06-26T04:55:09;101366.13;;;16.49;66.04
64853;BME280;56050;55.558;-4.644;2023-06-26T04:57:35;101372.31;;;16.49;66.04
64853;BME280;56050;55.558;-4.644;2023-06-26T05:00:01;101369.19;;;16.51;66.01
64853;BME280;56050;55.558;-4.644;2023-06-26T05:02:26;101373.84;;;16.54;65.96
64853;BME280;56050;55.558;-4.644;2023-06-26T05:04:52;101380.44;;;16.56;65.79
64853;BME280;56050;55.558;-4.644;2023-06-26T05:07:17;101377.28;;;16.58;65.69
64853;BME280;56050;55.558;-4.644;2023-06-26T05:09:43;101380.00;;;16.58;66.01
64853;BME280;56050;55.558;-4.644;2023-06-26T05:12:08;101382.31;;;16.59;65.80
64853;BME280;56050;55.558;-4.644;2023-06-26T05:14:34;101384.22;;;16.62;66.04
64853;BME280;56050;55.558;-4.644;2023-06-26T05:16:59;101372.91;;;16.64;65.71
64853;BME280;56050;55.558;-4.644;2023-06-26T05:19:24;101379.50;;;16.66;65.98
64853;BME280;56050;55.558;-4.644;2023-06-26T05:21:50;101383.38;;;16.65;65.92
64853;BME280;56050;55.558;-4.644;2023-06-26T05:24:17;101380.72;;;16.62;65.84
64853;BME280;56050;55.558;-4.644;2023-06-26T05:26:44;101377.66;;;16.60;65.47
64853;BME280;56050;55.558;-4.644;2023-06-26T05:29:10;101381.53;;;16.59;65.50
64853;BME280;56050;55.558;-4.644;2023-06-26T05:31:40;101371.84;;;16.58;65.67
64853;BME280;56050;55.558;-4.644;2023-06-26T05:34:07;101374.94;;;16.60;65.43
64853;BME280;56050;55.558;-4.644;2023-06-26T05:36:34;101375.69;;;16.60;65.60
64853;BME280;56050;55.558;-4.644;2023-06-26T05:39:00;101381.13;;;16.60;65.55
64853;BME280;56050;55.558;-4.644;2023-06-26T05:41:26;101382.25;;;16.63;65.51
64853;BME280;56050;55.558;-4.644;2023-06-26T05:43:51;101383.81;;;16.64;65.31
64853;BME280;56050;55.558;-4.644;2023-06-26T05:46:19;101384.63;;;16.61;65.37
64853;BME280;56050;55.558;-4.644;2023-06-26T05:48:45;101391.66;;;16.58;65.44
64853;BME280;56050;55.558;-4.644;2023-06-26T05:51:10;101398.25;;;16.57;65.58
64853;BME280;56050;55.558;-4.644;2023-06-26T05:53:36;101392.44;;;16.59;65.49
64853;BME280;56050;55.558;-4.644;2023-06-26T05:56:02;101390.38;;;16.66;65.37
64853;BME280;56050;55.558;-4.644;2023-06-26T05:58:28;101390.28;;;16.73;65.28
64853;BME280;56050;55.558;-4.644;2023-06-26T06:00:53;101384.75;;;16.77;65.37
64853;BME280;56050;55.558;-4.644;2023-06-26T06:03:19;101392.09;;;16.80;65.25
64853;BME280;56050;55.558;-4.644;2023-06-26T06:05:44;101395.94;;;16.82;65.19
64853;BME280;56050;55.558;-4.644;2023-06-26T06:08:10;101400.56;;;16.85;65.15
64853;BME280;56050;55.558;-4.644;2023-06-26T06:10:35;101408.75;;;16.85;64.83
64853;BME280;56050;55.558;-4.644;2023-06-26T06:13:00;101398.28;;;16.84;65.05
64853;BME280;56050;55.558;-4.644;2023-06-26T06:15:26;101399.44;;;16.83;64.83
64853;BME280;56050;55.558;-4.644;2023-06-26T06:17:51;101399.44;;;16.83;65.18
64853;BME280;56050;55.558;-4.644;2023-06-26T06:20:17;101406.53;;;16.77;64.64
64853;BME280;56050;55.558;-4.644;2023-06-26T06:22:45;101410.91;;;16.71;64.72
64853;BME280;56050;55.558;-4.644;2023-06-26T06:25:10;101421.44;;;16.69;65.07
64853;BME280;56050;55.558;-4.644;2023-06-26T06:27:36;101418.34;;;16.67;65.02
64853;BME280;56050;55.558;-4.644;2023-06-26T06:30:01;101412.13;;;16.66;64.96
64853;BME280;56050;55.558;-4.644;2023-06-26T06:32:28;101417.19;;;16.68;64.82
64853;BME280;56050;55.558;-4.644;2023-06-26T06:34:53;101426.03;;;16.72;64.93
64853;BME280;56050;55.558;-4.644;2023-06-26T06:37:18;101420.13;;;16.77;65.04
64853;BME280;56050;55.558;-4.644;2023-06-26T06:39:44;101425.53;;;16.80;65.02
64853;BME280;56050;55.558;-4.644;2023-06-26T06:42:09;101420.75;;;16.88;65.01
64853;BME280;56050;55.558;-4.644;2023-06-26T06:44:35;101417.13;;;16.98;65.01
64853;BME280;56050;55.558;-4.644;2023-06-26T06:47:00;101420.44;;;17.09;64.59
64853;BME280;56050;55.558;-4.644;2023-06-26T06:49:26;101421.44;;;17.19;64.73
64853;BME280;56050;55.558;-4.644;2023-06-26T06:51:51;101425.19;;;17.28;64.48
64853;BME280;56050;55.558;-4.644;2023-06-26T06:54:17;101426.94;;;17.38;64.45
64853;BME280;56050;55.558;-4.644;2023-06-26T06:56:42;101429.44;;;17.52;64.17
64853;BME280;56050;55.558;-4.644;2023-06-26T06:59:08;101434.66;;;17.67;64.02
64853;BME280;56050;55.558;-4.644;2023-06-26T07:01:34;101441.09;;;17.76;63.41
64853;BME280;56050;55.558;-4.644;2023-06-26T07:03:59;101445.66;;;17.83;63.30
64853;BME280;56050;55.558;-4.644;2023-06-26T07:06:25;101431.13;;;17.89;63.21
64853;BME280;56050;55.558;-4.644;2023-06-26T07:08:50;101434.81;;;17.99;62.99
64853;BME280;56050;55.558;-4.644;2023-06-26T07:11:16;101434.25;;;18.07;63.08
64853;BME280;56050;55.558;-4.644;2023-06-26T07:13:42;101436.72;;;18.22;63.00
64853;BME280;56050;55.558;-4.644;2023-06-26T07:16:07;101432.50;;;18.37;62.70
64853;BME280;56050;55.558;-4.644;2023-06-26T07:18:37;101434.94;;;18.51;62.52
64853;BME280;56050;55.558;-4.644;2023-06-26T07:21:03;101438.13;;;18.65;61.97
64853;BME280;56050;55.558;-4.644;2023-06-26T07:23:29;101441.84;;;18.75;61.50
64853;BME280;56050;55.558;-4.644;2023-06-26T07:25:54;101443.28;;;18.80;61.00
64853;BME280;56050;55.558;-4.644;2023-06-26T07:28:20;101443.09;;;18.87;61.19
64853;BME280;56050;55.558;-4.644;2023-06-26T07:30:45;101441.00;;;18.94;60.96
64853;BME280;56050;55.558;-4.644;2023-06-26T07:33:10;101446.38;;;18.98;60.37
64853;BME280;56050;55.558;-4.644;2023-06-26T07:35:36;101444.84;;;18.97;60.69
64853;BME280;56050;55.558;-4.644;2023-06-26T07:38:01;101451.56;;;19.08;60.76
64853;BME280;56050;55.558;-4.644;2023-06-26T07:40:27;101447.56;;;19.29;61.06
64853;BME280;56050;55.558;-4.644;2023-06-26T07:42:53;101457.25;;;19.50;59.98
64853;BME280;56050;55.558;-4.644;2023-06-26T07:45:19;101455.63;;;19.52;59.47
64853;BME280;56050;55.558;-4.644;2023-06-26T07:47:45;101453.13;;;19.58;59.85
64853;BME280;56050;55.558;-4.644;2023-06-26T07:50:11;101454.28;;;19.73;59.83
64853;BME280;56050;55.558;-4.644;2023-06-26T07:52:36;101454.59;;;19.91;59.60
64853;BME280;56050;55.558;-4.644;2023-06-26T07:55:02;101456.03;;;20.08;59.29
64853;BME280;56050;55.558;-4.644;2023-06-26T07:57:29;101465.09;;;20.21;58.86
64853;BME280;56050;55.558;-4.644;2023-06-26T07:59:55;101449.25;;;20.29;58.39
64853;BME280;56050;55.558;-4.644;2023-06-26T08:02:21;101461.63;;;20.33;57.90
64853;BME280;56050;55.558;-4.644;2023-06-26T08:04:46;101457.59;;;20.38;57.66
64853;BME280;56050;55.558;-4.644;2023-06-26T08:07:11;101462.94;;;20.41;57.49
64853;BME280;56050;55.558;-4.644;2023-06-26T08:09:39;101469.41;;;20.47;57.42
64853;BME280;56050;55.558;-4.644;2023-06-26T08:12:05;101466.81;;;20.57;57.49
64853;BME280;56050;55.558;-4.644;2023-06-26T08:14:30;101469.22;;;20.67;57.53
64853;BME280;56050;55.558;-4.644;2023-06-26T08:16:56;101466.16;;;20.78;56.78
64853;BME280;56050;55.558;-4.644;2023-06-26T08:19:22;101475.69;;;20.86;57.13
64853;BME280;56050;55.558;-4.644;2023-06-26T08:21:48;101476.59;;;20.95;57.09
64853;BME280;56050;55.558;-4.644;2023-06-26T08:24:14;101492.59;;;21.10;56.91
64853;BME280;56050;55.558;-4.644;2023-06-26T08:26:45;101484.13;;;21.29;56.74
64853;BME280;56050;55.558;-4.644;2023-06-26T08:29:11;101492.44;;;21.38;56.33
64853;BME280;56050;55.558;-4.644;2023-06-26T08:31:37;101496.41;;;21.37;55.85
64853;BME280;56050;55.558;-4.644;2023-06-26T08:34:03;101498.59;;;21.30;55.87
64853;BME280;56050;55.558;-4.644;2023-06-26T08:36:29;101500.69;;;21.13;55.29
64853;BME280;56050;55.558;-4.644;2023-06-26T08:38:55;101499.69;;;20.94;55.95
64853;BME280;56050;55.558;-4.644;2023-06-26T08:41:20;101501.44;;;20.88;56.00
64853;BME280;56050;55.558;-4.644;2023-06-26T08:43:46;101508.47;;;20.89;56.14
64853;BME280;56050;55.558;-4.644;2023-06-26T08:46:12;101513.28;;;20.85;55.66
64853;BME280;56050;55.558;-4.644;2023-06-26T08:48:37;101507.16;;;20.81;55.86
64853;BME280;56050;55.558;-4.644;2023-06-26T08:51:12;101511.31;;;20.73;55.85
64853;BME280;56050;55.558;-4.644;2023-06-26T08:53:57;101511.06;;;20.68;56.22
64853;BME280;56050;55.558;-4.644;2023-06-26T08:56:24;101514.00;;;20.61;56.01
64853;BME280;56050;55.558;-4.644;2023-06-26T08:58:51;101516.63;;;20.52;56.06
64853;BME280;56050;55.558;-4.644;2023-06-26T09:01:17;101515.72;;;20.42;56.27
64853;BME280;56050;55.558;-4.644;2023-06-26T09:03:44;101512.19;;;20.29;56.18
64853;BME280;56050;55.558;-4.644;2023-06-26T09:06:09;101514.09;;;20.16;56.30
64853;BME280;56050;55.558;-4.644;2023-06-26T09:08:35;101509.78;;;20.02;56.36
64853;BME280;56050;55.558;-4.644;2023-06-26T09:11:00;101508.59;;;19.87;55.97
64853;BME280;56050;55.558;-4.644;2023-06-26T09:13:28;101517.59;;;19.71;56.36
64853;BME280;56050;55.558;-4.644;2023-06-26T09:15:54;101525.38;;;19.57;56.67
64853;BME280;56050;55.558;-4.644;2023-06-26T09:18:21;101529.50;;;19.49;56.98
64853;BME280;56050;55.558;-4.644;2023-06-26T09:20:47;101525.41;;;19.41;56.84
64853;BME280;56050;55.558;-4.644;2023-06-26T09:23:13;101536.56;;;19.30;56.98
64853;BME280;56050;55.558;-4.644;2023-06-26T09:25:39;101534.75;;;19.23;57.24
64853;BME280;56050;55.558;-4.644;2023-06-26T09:28:05;101540.19;;;19.23;57.16
64853;BME280;56050;55.558;-4.644;2023-06-26T09:30:34;101532.00;;;19.23;57.08
64853;BME280;56050;55.558;-4.644;2023-06-26T09:33:17;101537.03;;;19.25;57.26
64853;BME280;56050;55.558;-4.644;2023-06-26T09:35:43;101531.94;;;19.27;56.97
64853;BME280;56050;55.558;-4.644;2023-06-26T09:38:09;101539.09;;;19.21;56.88
64853;BME280;56050;55.558;-4.644;2023-06-26T09:40:34;101535.31;;;19.15;57.01
64853;BME280;56050;55.558;-4.644;2023-06-26T09:43:07;101542.16;;;19.07;57.31
64853;BME280;56050;55.558;-4.644;2023-06-26T09:45:34;101545.31;;;19.05;56.87
64853;BME280;56050;55.558;-4.644;2023-06-26T09:48:02;101550.78;;;19.05;57.29
64853;BME280;56050;55.558;-4.644;2023-06-26T09:50:28;101536.69;;;19.07;57.29
64853;BME280;56050;55.558;-4.644;2023-06-26T09:52:55;101556.97;;;19.06;57.52
64853;BME280;56050;55.558;-4.644;2023-06-26T09:55:20;101566.03;;;19.03;57.49
64853;BME280;56050;55.558;-4.644;2023-06-26T09:57:51;101545.38;;;19.02;57.66
64853;BME280;56050;55.558;-4.644;2023-06-26T10:00:18;101549.22;;;19.04;57.21
64853;BME280;56050;55.558;-4.644;2023-06-26T10:02:44;101552.28;;;19.06;57.54
64853;BME280;56050;55.558;-4.644;2023-06-26T10:05:10;101553.66;;;19.14;57.76
64853;BME280;56050;55.558;-4.644;2023-06-26T10:07:35;101553.88;;;19.23;57.74
64853;BME280;56050;55.558;-4.644;2023-06-26T10:10:02;101554.56;;;19.27;57.38
64853;BME280;56050;55.558;-4.644;2023-06-26T10:12:30;101565.59;;;19.40;57.25
64853;BME280;56050;55.558;-4.644;2023-06-26T10:14:57;101568.09;;;19.51;57.17
64853;BME280;56050;55.558;-4.644;2023-06-26T10:17:25;101575.25;;;19.61;56.76
64853;BME280;56050;55.558;-4.644;2023-06-26T10:19:53;101581.75;;;19.67;56.46
64853;BME280;56050;55.558;-4.644;2023-06-26T10:22:25;101583.22;;;19.71;56.82
64853;BME280;56050;55.558;-4.644;2023-06-26T10:24:56;101584.16;;;19.81;56.71
64853;BME280;56050;55.558;-4.644;2023-06-26T10:27:26;101587.38;;;19.92;56.51
64853;BME280;56050;55.558;-4.644;2023-06-26T10:30:00;101587.13;;;20.03;55.94
64853;BME280;56050;55.558;-4.644;2023-06-26T10:32:28;101596.53;;;20.02;55.76
64853;BME280;56050;55.558;-4.644;2023-06-26T10:34:55;101595.69;;;20.05;56.20
64853;BME280;56050;55.558;-4.644;2023-06-26T10:37:21;101596.78;;;20.07;56.04
64853;BME280;56050;55.558;-4.644;2023-06-26T10:40:05;101613.63;;;20.06;55.76
64853;BME280;56050;55.558;-4.644;2023-06-26T10:42:36;101617.91;;;20.07;55.90
64853;BME280;56050;55.558;-4.644;2023-06-26T10:45:15;101625.66;;;20.08;56.06
64853;BME280;56050;55.558;-4.644;2023-06-26T10:47:42;101615.50;;;20.09;56.12
64853;BME280;56050;55.558;-4.644;2023-06-26T10:50:24;101621.28;;;20.11;56.10
64853;BME280;56050;55.558;-4.644;2023-06-26T10:53:14;101624.72;;;20.15;56.01
64853;BME280;56050;55.558;-4.644;2023-06-26T10:55:41;101623.44;;;20.19;55.69
64853;BME280;56050;55.558;-4.644;2023-06-26T11:00:52;101635.09;;;20.07;56.33
64853;BME280;56050;55.558;-4.644;2023-06-26T11:03:24;101640.47;;;19.94;56.60
64853;BME280;56050;55.558;-4.644;2023-06-26T11:06:08;101633.81;;;19.79;56.82
64853;BME280;56050;55.558;-4.644;2023-06-26T11:08:53;101636.63;;;19.60;57.26
64853;BME280;56050;55.558;-4.644;2023-06-26T11:11:22;101634.47;;;19.51;57.52
64853;BME280;56050;55.558;-4.644;2023-06-26T11:14:07;101639.16;;;19.51;57.63
64853;BME280;56050;55.558;-4.644;2023-06-26T11:16:34;101632.50;;;19.52;58.13
64853;BME280;56050;55.558;-4.644;2023-06-26T11:19:00;101638.38;;;19.50;58.55
64853;BME280;56050;55.558;-4.644;2023-06-26T11:21:26;101639.22;;;19.47;58.57
64853;BME280;56050;55.558;-4.644;2023-06-26T11:23:53;101635.13;;;19.39;58.82
64853;BME280;56050;55.558;-4.644;2023-06-26T11:26:23;101640.72;;;19.32;59.09
64853;BME280;56050;55.558;-4.644;2023-06-26T11:28:55;101640.84;;;19.25;59.27
64853;BME280;56050;55.558;-4.644;2023-06-26T11:31:29;101640.59;;;19.19;59.24
64853;BME280;56050;55.558;-4.644;2023-06-26T11:33:56;101650.06;;;19.15;59.38
64853;BME280;56050;55.558;-4.644;2023-06-26T11:36:26;101653.50;;;19.19;59.79
64853;BME280;56050;55.558;-4.644;2023-06-26T11:38:59;101652.50;;;19.29;59.60
64853;BME280;56050;55.558;-4.644;2023-06-26T11:41:36;101655.22;;;19.49;59.51
64853;BME280;56050;55.558;-4.644;2023-06-26T11:44:06;101655.69;;;19.63;59.16
64853;BME280;56050;55.558;-4.644;2023-06-26T11:46:34;101666.94;;;19.65;58.88
64853;BME280;56050;55.558;-4.644;2023-06-26T11:48:59;101666.41;;;19.54;58.83
64853;BME280;56050;55.558;-4.644;2023-06-26T11:51:28;101674.69;;;19.31;59.08
64853;BME280;56050;55.558;-4.644;2023-06-26T11:53:53;101669.88;;;19.19;59.68
64853;BME280;56050;55.558;-4.644;2023-06-26T11:56:19;101659.88;;;19.12;59.76
64853;BME280;56050;55.558;-4.644;2023-06-26T11:59:04;101666.44;;;19.15;60.17
64853;BME280;56050;55.558;-4.644;2023-06-26T12:01:43;101657.06;;;19.16;59.92
64853;BME280;56050;55.558;-4.644;2023-06-26T12:04:14;101667.84;;;19.23;59.98
64853;BME280;56050;55.558;-4.644;2023-06-26T12:06:45;101669.22;;;19.31;60.08
64853;BME280;56050;55.558;-4.644;2023-06-26T12:09:12;101671.84;;;19.38;60.02
64853;BME280;56050;55.558;-4.644;2023-06-26T12:11:40;101671.00;;;19.41;60.40
64853;BME280;56050;55.558;-4.644;2023-06-26T12:14:06;101670.91;;;19.45;60.04
64853;BME280;56050;55.558;-4.644;2023-06-26T12:16:36;101668.09;;;19.48;60.21
64853;BME280;56050;55.558;-4.644;2023-06-26T12:19:04;101668.38;;;19.54;60.47
64853;BME280;56050;55.558;-4.644;2023-06-26T12:24:08;101680.38;;;19.76;60.43
64853;BME280;56050;55.558;-4.644;2023-06-26T12:26:35;101684.66;;;19.77;60.19
64853;BME280;56050;55.558;-4.644;2023-06-26T12:29:10;101683.53;;;19.74;59.98
64853;BME280;56050;55.558;-4.644;2023-06-26T12:32:00;101681.56;;;19.75;59.88
64853;BME280;56050;55.558;-4.644;2023-06-26T12:34:32;101688.56;;;19.76;59.86
64853;BME280;56050;55.558;-4.644;2023-06-26T12:37:03;101692.41;;;19.78;59.86
64853;BME280;56050;55.558;-4.644;2023-06-26T12:39:30;101695.50;;;19.80;59.63
64853;BME280;56050;55.558;-4.644;2023-06-26T12:42:13;101698.22;;;19.80;59.76
64853;BME280;56050;55.558;-4.644;2023-06-26T12:44:39;101698.50;;;19.86;59.60
64853;BME280;56050;55.558;-4.644;2023-06-26T12:47:04;101687.06;;;19.91;59.49
64853;BME280;56050;55.558;-4.644;2023-06-26T12:49:38;101698.94;;;20.01;59.04
64853;BME280;56050;55.558;-4.644;2023-06-26T12:52:05;101702.38;;;20.05;59.00
64853;BME280;56050;55.558;-4.644;2023-06-26T12:54:32;101694.56;;;20.03;59.04
64853;BME280;56050;55.558;-4.644;2023-06-26T12:56:58;101694.66;;;20.00;58.87
64853;BME280;56050;55.558;-4.644;2023-06-26T12:59:23;101682.59;;;19.97;58.58